バマコ の空港の天気 - METARとTAF

バマコ・セヌー国際空港 ( GABS / BKO ) - マリ バマコ
飛行場実況気象(Metar)
観測時間10/25 21:30 GMT (10/25 21:30 UTC)
風向・風速不定 1m/s
視程10km以上
天気現象
なし
気温21℃
湿度73%
気圧1014hPa
METARGABS 252130Z VRB02KT CAVOK 21/16 Q1014 NOSIG
過去の天気等 Google飛行場航空写真 Wunderground天気予報

過去48時間のMETAR

飛行場予報(TAF)
発表時間: 10/25 17:00 GMT (10/25 17:00 UTC)
予報対象時間: 25日18時 GMT ~ 27日0時 GMT
風向・風速東北東 5m/s 瞬間風速 10m/s
視程10km以上
なし
25日18時 GMT ~ 25日23時 GMT に 確率 40% で一時的に
視程4000m
天気現象煙霧
26日6時 GMT ~ 26日10時 GMT に 確率 40% で一時的に
視程4000m
天気現象煙霧
TAF GABS 251700Z 2518/2624 06010G20KT CAVOK
PROB40 TEMPO 2518/2523 4000 HZ
PROB40 TEMPO 2606/2610 4000 HZ